createdAt,value
2019-02-12T00:00:24.688Z,18.27
2019-02-12T00:02:53.228Z,12.00
2019-02-12T00:05:21.733Z,14.50
2019-02-12T00:07:50.155Z,10.53
2019-02-12T00:10:18.572Z,10.03
2019-02-12T00:12:46.984Z,7.40
2019-02-12T00:15:15.426Z,9.90
2019-02-12T00:17:43.829Z,24.70
2019-02-12T00:20:12.233Z,8.67
2019-02-12T00:22:40.675Z,20.67
2019-02-12T00:25:09.555Z,10.40
2019-02-12T00:27:37.950Z,7.57
2019-02-12T00:30:09.687Z,11.33
2019-02-12T00:32:38.112Z,17.23
2019-02-12T00:35:07.973Z,6.53
2019-02-12T00:37:36.404Z,15.80
2019-02-12T00:40:07.132Z,9.47
2019-02-12T00:42:35.551Z,11.07
2019-02-12T00:45:05.531Z,8.10
2019-02-12T00:47:33.941Z,16.37
2019-02-12T00:50:02.367Z,10.17
2019-02-12T00:52:30.772Z,12.67
2019-02-12T00:54:59.183Z,13.50
2019-02-12T00:57:27.591Z,11.37
2019-02-12T00:59:55.993Z,10.63
2019-02-12T01:02:24.524Z,11.87
2019-02-12T01:04:52.949Z,10.57
2019-02-12T01:07:21.372Z,8.40
2019-02-12T01:09:49.781Z,18.33
2019-02-12T01:12:18.204Z,6.50
2019-02-12T01:14:46.625Z,6.03
2019-02-12T01:17:15.043Z,15.90
2019-02-12T01:19:43.475Z,4.10
2019-02-12T01:22:11.956Z,9.33
2019-02-12T01:24:40.354Z,7.67
2019-02-12T01:27:08.771Z,13.50
2019-02-12T01:29:37.192Z,7.50
2019-02-12T01:32:05.597Z,11.77
2019-02-12T01:34:34.002Z,11.33
2019-02-12T01:37:02.502Z,9.40
2019-02-12T01:39:30.897Z,15.77
2019-02-12T01:41:59.317Z,3.10
2019-02-12T01:44:27.722Z,8.80
2019-02-12T01:46:56.156Z,10.20
2019-02-12T01:49:24.549Z,4.53
2019-02-12T01:51:53.027Z,11.17
2019-02-12T01:54:22.605Z,10.93
2019-02-12T01:56:51.012Z,7.10
2019-02-12T01:59:19.404Z,6.13
2019-02-12T02:01:47.991Z,4.10
2019-02-12T02:04:16.399Z,10.20
2019-02-12T02:06:44.809Z,11.90
2019-02-12T02:09:13.208Z,13.90
2019-02-12T02:11:41.898Z,4.87
2019-02-12T02:14:10.289Z,7.80
2019-02-12T02:16:38.701Z,12.30
2019-02-12T02:19:07.092Z,12.07
2019-02-12T02:21:43.743Z,13.40
2019-02-12T02:24:06.036Z,9.03
2019-02-12T02:26:34.439Z,4.27
2019-02-12T02:29:02.877Z,6.80
2019-02-12T02:31:31.268Z,24.17
2019-02-12T02:33:59.681Z,15.33
2019-02-12T02:36:28.085Z,9.93
2019-02-12T02:38:56.708Z,4.57
2019-02-12T02:41:25.125Z,22.57
2019-02-12T02:43:53.631Z,10.47
2019-02-12T02:46:22.035Z,11.13
2019-02-12T02:48:50.442Z,9.10
2019-02-12T02:51:18.846Z,9.17
2019-02-12T02:53:47.281Z,10.13
2019-02-12T02:56:15.696Z,9.70
2019-02-12T02:58:44.100Z,6.93
2019-02-12T03:01:12.503Z,10.67
2019-02-12T03:03:41.129Z,7.10
2019-02-12T03:06:09.540Z,5.50
2019-02-12T03:08:37.952Z,10.27
2019-02-12T03:11:06.353Z,10.97
2019-02-12T03:13:34.786Z,5.17
2019-02-12T03:16:03.178Z,11.80
2019-02-12T03:18:31.607Z,3.30
2019-02-12T03:21:00.055Z,4.30
2019-02-12T03:23:28.771Z,9.73
2019-02-12T03:25:57.216Z,11.97
2019-02-12T03:28:25.627Z,7.57
2019-02-12T03:30:54.027Z,11.27
2019-02-12T03:33:22.456Z,4.83
2019-02-12T03:35:50.914Z,16.70
2019-02-12T03:38:19.340Z,5.00
2019-02-12T03:40:47.733Z,14.00
2019-02-12T03:43:16.154Z,4.03
2019-02-12T03:45:44.551Z,10.93
2019-02-12T03:48:12.957Z,6.10
2019-02-12T03:50:41.517Z,9.70
2019-02-12T03:53:10.039Z,6.90
2019-02-12T03:55:38.456Z,6.70
2019-02-12T03:58:06.856Z,8.83
2019-02-12T04:00:35.624Z,5.87
2019-02-12T04:03:08.309Z,9.40
2019-02-12T04:05:38.264Z,10.60
2019-02-12T04:08:07.208Z,5.80
2019-02-12T04:10:35.745Z,9.93
2019-02-12T04:13:04.314Z,5.43
2019-02-12T04:15:32.763Z,7.10
2019-02-12T04:18:01.245Z,6.93
2019-02-12T04:20:29.662Z,9.67
2019-02-12T04:22:58.062Z,6.80
2019-02-12T04:25:26.501Z,10.47
2019-02-12T04:27:55.542Z,8.70
2019-02-12T04:30:24.193Z,7.83
2019-02-12T04:32:52.591Z,9.77
2019-02-12T04:35:21.024Z,8.60
2019-02-12T04:37:49.423Z,6.17
2019-02-12T04:40:17.852Z,5.93
2019-02-12T04:42:46.250Z,9.57
2019-02-12T04:45:14.657Z,13.53
2019-02-12T04:47:43.056Z,4.70
2019-02-12T04:50:13.933Z,4.00
2019-02-12T04:52:42.433Z,8.23
2019-02-12T04:55:12.279Z,9.43
2019-02-12T04:57:40.666Z,4.17
2019-02-12T05:00:16.725Z,4.50
2019-02-12T05:02:45.116Z,3.50
2019-02-12T05:05:13.749Z,7.87
2019-02-12T05:07:42.727Z,6.70
2019-02-12T05:10:23.101Z,7.37
2019-02-12T05:12:51.488Z,4.83
2019-02-12T05:15:19.916Z,2.90
2019-02-12T05:17:48.383Z,8.50
2019-02-12T05:20:16.807Z,9.13
2019-02-12T05:22:45.224Z,6.40
2019-02-12T05:25:14.059Z,6.70
2019-02-12T05:27:42.461Z,6.13
2019-02-12T05:30:13.531Z,10.70
2019-02-12T05:32:41.948Z,6.80
2019-02-12T05:35:10.626Z,22.13
2019-02-12T05:37:39.022Z,15.33
2019-02-12T05:40:09.764Z,5.20
2019-02-12T05:42:38.522Z,12.77
2019-02-12T05:45:14.072Z,6.60
2019-02-12T05:47:42.501Z,5.50
2019-02-12T05:50:13.486Z,11.03
2019-02-12T05:52:42.041Z,23.80
2019-02-12T05:55:10.544Z,16.83
2019-02-12T05:57:39.186Z,13.20
2019-02-12T06:00:14.589Z,10.87
2019-02-12T06:02:43.309Z,9.93
2019-02-12T06:05:13.248Z,16.07
2019-02-12T06:07:41.925Z,11.40
2019-02-12T06:10:11.466Z,7.73
2019-02-12T06:12:39.869Z,5.97
2019-02-12T06:15:08.353Z,15.50
2019-02-12T06:17:36.759Z,7.60
2019-02-12T06:20:07.160Z,14.20
2019-02-12T06:22:35.701Z,15.70
2019-02-12T06:25:08.157Z,15.37
2019-02-12T06:27:35.891Z,18.77
2019-02-12T06:30:06.545Z,14.00
2019-02-12T06:32:34.944Z,16.37
2019-02-12T06:35:03.917Z,12.70
2019-02-12T06:37:32.455Z,12.63
2019-02-12T06:40:00.852Z,18.37
2019-02-12T06:42:29.287Z,10.37
2019-02-12T06:44:57.669Z,14.93
2019-02-12T06:47:26.105Z,43.10
2019-02-12T06:49:54.517Z,16.50
2019-02-12T06:52:22.944Z,15.87
2019-02-12T06:54:51.341Z,15.87
2019-02-12T06:57:19.894Z,14.20
2019-02-12T06:59:48.310Z,18.10
2019-02-12T07:02:53.132Z,12.83
2019-02-12T07:05:21.598Z,30.23
2019-02-12T07:08:12.720Z,18.83
2019-02-12T07:10:41.727Z,16.63
2019-02-12T07:13:19.248Z,10.90
2019-02-12T07:15:48.324Z,18.57
2019-02-12T07:18:22.508Z,6.43
2019-02-12T07:20:59.821Z,16.70
2019-02-12T07:23:40.267Z,16.47
2019-02-12T07:26:23.539Z,21.17
2019-02-12T07:29:06.839Z,18.33
2019-02-12T07:31:44.012Z,16.20
2019-02-12T07:34:15.477Z,10.50
2019-02-12T07:37:05.025Z,7.97
2019-02-12T07:39:39.419Z,19.00
2019-02-12T07:42:26.979Z,10.87
2019-02-12T07:45:16.226Z,11.50
2019-02-12T07:48:06.976Z,19.03
2019-02-12T07:50:56.549Z,25.37
2019-02-12T07:53:31.292Z,13.73
2019-02-12T07:56:26.892Z,15.03
2019-02-12T07:59:10.252Z,19.33
2019-02-12T08:01:53.985Z,13.20
2019-02-12T08:04:46.703Z,17.37
2019-02-12T08:07:29.956Z,8.17
2019-02-12T08:10:19.880Z,17.03
2019-02-12T08:13:15.313Z,11.63
2019-02-12T08:16:04.329Z,10.43
2019-02-12T08:18:38.834Z,20.50
2019-02-12T08:21:31.490Z,15.30
2019-02-12T08:24:03.293Z,16.90
2019-02-12T08:26:46.675Z,25.27
2019-02-12T08:29:33.183Z,11.70
2019-02-12T08:32:19.634Z,28.33
2019-02-12T08:35:09.419Z,22.80
2019-02-12T08:38:12.510Z,19.10
2019-02-12T08:40:50.036Z,26.73
2019-02-12T08:43:24.260Z,29.97
2019-02-12T08:46:01.508Z,20.57
2019-02-12T08:48:38.940Z,15.97
2019-02-12T08:51:25.281Z,23.63
2019-02-12T08:54:14.801Z,9.57
2019-02-12T08:57:00.486Z,14.03
2019-02-12T08:59:34.707Z,10.47
2019-02-12T09:02:22.796Z,14.70
2019-02-12T09:04:54.272Z,10.50
2019-02-12T09:07:31.725Z,8.83
2019-02-12T09:10:03.481Z,10.60
2019-02-12T09:12:46.701Z,17.30
2019-02-12T09:15:51.512Z,11.27
2019-02-12T09:18:28.718Z,33.00
2019-02-12T09:21:15.208Z,10.03
2019-02-12T09:24:00.078Z,7.37
2019-02-12T09:26:37.650Z,17.63
2019-02-12T09:29:18.104Z,23.70
2019-02-12T09:31:55.356Z,12.93
2019-02-12T09:34:41.585Z,17.03
2019-02-12T09:37:24.231Z,14.93
2019-02-12T09:40:19.093Z,13.57
2019-02-12T09:42:53.924Z,16.33
2019-02-12T09:45:28.092Z,24.23
2019-02-12T09:47:59.569Z,8.40
2019-02-12T09:50:39.364Z,20.43
2019-02-12T09:53:13.565Z,16.77
2019-02-12T09:55:50.675Z,8.77
2019-02-12T09:58:38.758Z,18.70
2019-02-12T10:01:15.701Z,20.23
2019-02-12T10:04:20.725Z,17.90
2019-02-12T10:07:03.733Z,16.80
2019-02-12T10:10:00.581Z,13.90
2019-02-12T10:12:40.780Z,9.67
2019-02-12T10:15:31.941Z,17.03
2019-02-12T10:18:09.399Z,32.27
2019-02-12T10:20:57.445Z,15.80
2019-02-12T10:23:47.013Z,23.93
2019-02-12T10:26:18.493Z,26.67
2019-02-12T10:28:58.653Z,18.23
2019-02-12T10:31:27.459Z,20.30
2019-02-12T10:33:55.847Z,10.73
2019-02-12T10:36:24.265Z,23.47
2019-02-12T10:38:52.680Z,29.40
2019-02-12T10:41:21.097Z,22.00
2019-02-12T10:43:49.501Z,20.27
2019-02-12T10:46:17.921Z,17.27
2019-02-12T10:48:46.330Z,20.60
2019-02-12T10:51:14.729Z,19.30
2019-02-12T10:53:43.154Z,21.03
2019-02-12T10:56:11.575Z,16.30
2019-02-12T10:58:39.984Z,11.00
2019-02-12T11:01:08.409Z,12.23
2019-02-12T11:03:36.828Z,18.00
2019-02-12T11:06:05.280Z,12.33
2019-02-12T11:08:33.809Z,33.47
2019-02-12T11:11:02.213Z,15.10
2019-02-12T11:13:30.742Z,13.13
2019-02-12T11:15:59.393Z,20.07
2019-02-12T11:18:27.816Z,24.20
2019-02-12T11:20:56.221Z,22.70
2019-02-12T11:23:24.664Z,16.80
2019-02-12T11:25:53.085Z,34.03
2019-02-12T11:28:21.497Z,10.83
2019-02-12T11:30:49.904Z,11.10
2019-02-12T11:33:18.435Z,11.90
2019-02-12T11:35:46.836Z,9.57
2019-02-12T11:38:15.249Z,13.07
2019-02-12T11:40:43.659Z,18.83
2019-02-12T11:43:12.101Z,17.00
2019-02-12T11:45:41.765Z,9.83
2019-02-12T11:48:10.218Z,8.03
2019-02-12T11:50:38.615Z,12.90
2019-02-12T11:53:07.214Z,12.10
2019-02-12T11:55:35.617Z,12.30
2019-02-12T11:58:04.064Z,11.47
2019-02-12T12:00:34.102Z,13.70
2019-02-12T12:03:02.534Z,8.80
2019-02-12T12:05:30.933Z,13.80
2019-02-12T12:08:00.545Z,10.83
2019-02-12T12:10:28.956Z,10.43
2019-02-12T12:12:57.361Z,14.40
2019-02-12T12:15:25.777Z,11.10
2019-02-12T12:17:54.183Z,16.87
2019-02-12T12:20:22.613Z,10.77
2019-02-12T12:22:51.007Z,10.87
2019-02-12T12:25:19.420Z,19.53
2019-02-12T12:27:47.819Z,16.03
2019-02-12T12:30:16.238Z,16.33
2019-02-12T12:32:44.653Z,12.60
2019-02-12T12:35:13.080Z,12.40
2019-02-12T12:37:41.530Z,11.80
2019-02-12T12:40:11.928Z,3.97
2019-02-12T12:42:40.337Z,10.27
2019-02-12T12:45:13.641Z,11.13
2019-02-12T12:47:42.057Z,7.80
2019-02-12T12:50:12.246Z,8.07
2019-02-12T12:52:40.667Z,4.83
2019-02-12T12:55:10.244Z,9.30
2019-02-12T12:57:41.958Z,10.07
2019-02-12T13:00:12.187Z,17.07
2019-02-12T13:02:40.581Z,9.30
2019-02-12T13:05:10.960Z,10.83
2019-02-12T13:07:39.732Z,5.10
2019-02-12T13:10:13.712Z,9.40
2019-02-12T13:12:42.126Z,13.10
2019-02-12T13:15:14.732Z,11.63
2019-02-12T13:17:43.132Z,11.67
2019-02-12T13:20:19.410Z,3.67
2019-02-12T13:22:47.842Z,15.47
2019-02-12T13:25:16.391Z,2.10
2019-02-12T13:27:44.788Z,16.70
2019-02-12T13:30:18.238Z,9.70
2019-02-12T13:32:46.652Z,7.70
2019-02-12T13:35:15.327Z,8.57
2019-02-12T13:37:43.784Z,3.17
2019-02-12T13:40:13.264Z,14.73
2019-02-12T13:42:41.653Z,6.40
2019-02-12T13:45:17.014Z,13.13
2019-02-12T13:47:45.543Z,13.63
2019-02-12T13:50:14.229Z,9.83
2019-02-12T13:52:42.704Z,9.53
2019-02-12T13:55:17.327Z,20.50
2019-02-12T13:57:41.920Z,14.77
2019-02-12T14:00:19.461Z,18.57
2019-02-12T14:02:47.879Z,12.13
2019-02-12T14:05:22.114Z,15.40
2019-02-12T14:07:50.582Z,6.37
2019-02-12T14:10:19.050Z,12.20
2019-02-12T14:12:47.453Z,7.97
2019-02-12T14:15:15.908Z,13.63
2019-02-12T14:17:44.300Z,13.67
2019-02-12T14:20:17.109Z,15.60
2019-02-12T14:22:45.781Z,11.37
2019-02-12T14:25:15.828Z,12.40
2019-02-12T14:27:44.225Z,7.73
2019-02-12T14:30:23.031Z,4.30
2019-02-12T14:32:51.572Z,6.37
2019-02-12T14:35:19.973Z,9.97
2019-02-12T14:37:48.361Z,9.10
2019-02-12T14:40:17.756Z,18.27
2019-02-12T14:42:46.183Z,10.93
2019-02-12T14:45:19.385Z,26.10
2019-02-12T14:47:47.910Z,12.33
2019-02-12T14:50:20.680Z,4.70
2019-02-12T14:52:49.104Z,11.30
2019-02-12T14:55:17.523Z,11.37
2019-02-12T14:57:45.955Z,6.10
2019-02-12T15:00:18.515Z,9.00
2019-02-12T15:02:46.921Z,6.70
2019-02-12T15:05:15.720Z,8.50
2019-02-12T15:07:44.149Z,18.03
2019-02-12T15:10:14.764Z,3.13
2019-02-12T15:12:43.172Z,9.37
2019-02-12T15:15:11.841Z,2.53
2019-02-12T15:17:40.262Z,9.10
2019-02-12T15:20:12.576Z,24.50
2019-02-12T15:22:41.277Z,12.70
2019-02-12T15:25:10.810Z,14.10
2019-02-12T15:27:39.231Z,16.63
2019-02-12T15:30:15.598Z,17.20
2019-02-12T15:32:44.005Z,8.43
2019-02-12T15:35:12.976Z,4.67
2019-02-12T15:37:41.405Z,10.90
2019-02-12T15:40:12.652Z,7.37
2019-02-12T15:42:41.069Z,9.33
2019-02-12T15:45:12.626Z,11.80
2019-02-12T15:47:41.034Z,7.50
2019-02-12T15:50:11.171Z,4.60
2019-02-12T15:52:39.785Z,28.63
2019-02-12T15:55:13.155Z,8.13
2019-02-12T15:57:45.236Z,15.43
2019-02-12T16:00:19.805Z,15.13
2019-02-12T16:02:47.156Z,9.33
2019-02-12T16:05:15.930Z,13.97
2019-02-12T16:07:45.230Z,20.13
2019-02-12T16:10:21.828Z,7.03
2019-02-12T16:12:51.442Z,14.80
2019-02-12T16:15:22.456Z,12.33
2019-02-12T16:17:51.057Z,9.20
2019-02-12T16:20:19.735Z,12.17
2019-02-12T16:22:48.153Z,11.13
2019-02-12T16:25:17.536Z,16.17
2019-02-12T16:27:45.951Z,9.37
2019-02-12T16:30:19.061Z,9.97
2019-02-12T16:32:47.488Z,9.87
2019-02-12T16:35:17.377Z,17.60
2019-02-12T16:37:45.818Z,13.00
2019-02-12T16:40:20.140Z,20.37
2019-02-12T16:42:51.221Z,16.70
2019-02-12T16:45:31.748Z,10.00
2019-02-12T16:48:00.317Z,13.40
2019-02-12T16:50:28.856Z,7.93
2019-02-12T16:52:57.261Z,14.80
2019-02-12T16:55:25.675Z,11.53
2019-02-12T16:57:54.269Z,12.53
2019-02-12T17:00:22.697Z,9.10
2019-02-12T17:02:51.342Z,13.50
2019-02-12T17:05:19.766Z,23.83
2019-02-12T17:07:48.174Z,18.73
2019-02-12T17:10:16.780Z,16.63
2019-02-12T17:12:46.777Z,9.50
2019-02-12T17:15:15.185Z,21.40
2019-02-12T17:17:43.601Z,11.37
2019-02-12T17:20:20.495Z,7.97
2019-02-12T17:22:48.913Z,8.10
2019-02-12T17:25:17.316Z,20.67
2019-02-12T17:27:45.730Z,6.40
2019-02-12T17:30:16.073Z,10.47
2019-02-12T17:32:44.525Z,11.00
2019-02-12T17:35:12.997Z,22.13
2019-02-12T17:37:41.404Z,24.73
2019-02-12T17:40:15.301Z,17.57
2019-02-12T17:42:44.846Z,20.20
2019-02-12T17:45:15.293Z,12.97
2019-02-12T17:47:43.846Z,10.23
2019-02-12T17:50:13.895Z,13.30
2019-02-12T17:52:42.406Z,15.27
2019-02-12T17:55:11.552Z,21.10
2019-02-12T17:57:39.952Z,12.63
2019-02-12T18:00:15.171Z,32.33
2019-02-12T18:02:43.565Z,22.37
2019-02-12T18:05:11.972Z,27.87
2019-02-12T18:07:40.373Z,19.30
2019-02-12T18:10:11.026Z,12.53
2019-02-12T18:12:39.425Z,22.57
2019-02-12T18:15:12.728Z,27.50
2019-02-12T18:17:41.232Z,18.10
2019-02-12T18:20:11.905Z,29.77
2019-02-12T18:22:40.369Z,21.17
2019-02-12T18:25:10.525Z,15.83
2019-02-12T18:27:39.769Z,16.90
2019-02-12T18:30:17.921Z,17.37
2019-02-12T18:32:46.678Z,22.67
2019-02-12T18:35:15.193Z,20.00
2019-02-12T18:37:43.680Z,14.83
2019-02-12T18:40:18.727Z,23.53
2019-02-12T18:42:49.959Z,21.40
2019-02-12T18:45:26.099Z,22.53
2019-02-12T18:47:54.528Z,22.53
2019-02-12T18:50:22.951Z,17.50
2019-02-12T18:52:51.370Z,28.03
2019-02-12T18:55:19.865Z,17.10
2019-02-12T18:57:48.297Z,13.57
2019-02-12T19:00:21.544Z,22.50
2019-02-12T19:02:49.968Z,23.70
2019-02-12T19:05:18.369Z,22.60
2019-02-12T19:07:48.097Z,28.37
2019-02-12T19:10:17.870Z,15.57
2019-02-12T19:12:46.387Z,23.07
2019-02-12T19:15:19.903Z,24.90
2019-02-12T19:18:00.232Z,19.97
2019-02-12T19:20:28.649Z,31.77
2019-02-12T19:22:57.134Z,25.67
2019-02-12T19:25:25.770Z,17.73
2019-02-12T19:27:54.202Z,32.13
2019-02-12T19:30:22.620Z,28.40
2019-02-12T19:32:51.370Z,20.53
2019-02-12T19:35:19.755Z,27.17
2019-02-12T19:37:48.157Z,29.33
2019-02-12T19:40:16.587Z,32.93
2019-02-12T19:42:45.068Z,30.40
2019-02-12T19:45:18.219Z,40.00
2019-02-12T19:47:46.630Z,30.67
2019-02-12T19:50:15.290Z,26.37
2019-02-12T19:52:43.700Z,17.60
2019-02-12T19:55:12.389Z,37.27
2019-02-12T19:57:40.820Z,24.27
2019-02-12T20:00:15.884Z,32.47
2019-02-12T20:02:44.320Z,31.37
2019-02-12T20:05:12.993Z,33.93
2019-02-12T20:07:41.404Z,27.03
2019-02-12T20:10:11.545Z,25.20
2019-02-12T20:12:39.961Z,24.30
2019-02-12T20:15:13.799Z,23.37
2019-02-12T20:17:42.269Z,30.33
2019-02-12T20:20:12.451Z,30.40
2019-02-12T20:22:40.860Z,31.90
2019-02-12T20:25:10.713Z,29.90
2019-02-12T20:27:39.216Z,25.83
2019-02-12T20:30:13.328Z,29.83
2019-02-12T20:32:41.750Z,27.47
2019-02-12T20:35:12.876Z,29.37
2019-02-12T20:37:41.320Z,22.77
2019-02-12T20:40:12.332Z,30.10
2019-02-12T20:42:41.020Z,24.00
2019-02-12T20:45:16.452Z,26.43
2019-02-12T20:47:44.857Z,36.17
2019-02-12T20:50:16.080Z,23.80
2019-02-12T20:52:44.520Z,31.47
2019-02-12T20:55:12.920Z,29.37
2019-02-12T20:57:41.333Z,25.97
2019-02-12T21:00:15.610Z,30.27
2019-02-12T21:02:44.031Z,22.83
2019-02-12T21:05:14.173Z,29.53
2019-02-12T21:07:42.587Z,26.27
2019-02-12T21:10:13.750Z,25.70
2019-02-12T21:12:42.202Z,31.63
2019-02-12T21:15:13.607Z,41.70
2019-02-12T21:17:42.033Z,30.80
2019-02-12T21:20:11.578Z,23.23
2019-02-12T21:22:40.998Z,44.27
2019-02-12T21:25:11.648Z,32.90
2019-02-12T21:27:40.049Z,32.23
2019-02-12T21:30:22.915Z,31.27
2019-02-12T21:32:51.710Z,27.77
2019-02-12T21:35:20.292Z,31.37
2019-02-12T21:37:48.781Z,20.40
2019-02-12T21:40:20.440Z,25.40
2019-02-12T21:42:49.377Z,26.40
2019-02-12T21:45:17.857Z,32.73
2019-02-12T21:47:46.549Z,29.80
2019-02-12T21:50:14.999Z,27.93
2019-02-12T21:52:43.401Z,30.43
2019-02-12T21:55:14.433Z,28.90
2019-02-12T21:57:42.865Z,22.03
2019-02-12T22:00:19.566Z,27.40
2019-02-12T22:02:48.087Z,29.30
2019-02-12T22:05:17.359Z,29.17
2019-02-12T22:07:46.162Z,34.00
2019-02-12T22:10:20.014Z,35.27
2019-02-12T22:12:48.516Z,27.03
2019-02-12T22:15:16.984Z,28.37
2019-02-12T22:17:45.399Z,37.83
2019-02-12T22:20:15.998Z,32.10
2019-02-12T22:22:44.410Z,30.47
2019-02-12T22:25:12.985Z,37.23
2019-02-12T22:27:41.424Z,33.03
2019-02-12T22:30:13.272Z,30.13
2019-02-12T22:32:41.840Z,28.50
2019-02-12T22:35:10.375Z,31.80
2019-02-12T22:37:38.780Z,38.80
2019-02-12T22:40:12.187Z,27.73
2019-02-12T22:42:40.616Z,39.33
2019-02-12T22:45:17.808Z,30.27
2019-02-12T22:47:46.253Z,30.10
2019-02-12T22:50:14.810Z,39.93
2019-02-12T22:52:43.216Z,40.53
2019-02-12T22:55:11.979Z,37.33
2019-02-12T22:57:48.558Z,32.87
2019-02-12T23:00:48.443Z,37.60
2019-02-12T23:03:17.155Z,31.27
2019-02-12T23:05:45.573Z,34.77
2019-02-12T23:08:14.041Z,35.90
2019-02-12T23:10:44.120Z,44.93
2019-02-12T23:13:12.788Z,35.20
2019-02-12T23:15:41.197Z,44.60
2019-02-12T23:18:09.714Z,32.90
2019-02-12T23:20:38.140Z,34.73
2019-02-12T23:23:07.464Z,44.00
2019-02-12T23:25:37.053Z,37.83
2019-02-12T23:28:05.491Z,34.90
2019-02-12T23:30:33.962Z,36.07
2019-02-12T23:33:02.373Z,38.00
2019-02-12T23:35:30.769Z,33.87
2019-02-12T23:37:59.189Z,38.03
2019-02-12T23:40:27.584Z,44.77
2019-02-12T23:42:56.082Z,47.40
2019-02-12T23:45:24.476Z,36.33
2019-02-12T23:47:52.976Z,39.27
2019-02-12T23:50:21.384Z,42.57
2019-02-12T23:52:49.985Z,38.67
2019-02-12T23:55:18.395Z,32.67
2019-02-12T23:57:46.840Z,35.60
